Time;durP1;ratioP1;P1;durP2;ratioP2;P2;SDS_P1;SDS_P2;PMS_P1;PMS_P2;Temp;Humidity;BMP_temperature;BMP_pressure;BME280_temperature;BME280_humidity;BME280_pressure;Samples;Min_cycle;Max_cycle;Signal;HPM_P1;HPM_P2
2024/01/23 00:00:11;;;;;;;15.20;1.67;;;;;;;;;;4957254;28;20420;-83
2024/01/23 00:02:37;;;;;;;11.00;1.27;;;;;;;;;;4917209;28;20490;-82
2024/01/23 00:05:03;;;;;;;8.27;1.97;;;;;;;;;;4958011;28;20416;-83
2024/01/23 00:07:29;;;;;;;11.27;2.00;;;;;;;;;;4958112;28;20498;-82
2024/01/23 00:09:55;;;;;;;8.90;1.27;;;;;;;;;;4957633;28;20888;-83
2024/01/23 00:12:21;;;;;;;13.67;1.97;;;;;;;;;;4957897;28;20529;-82
2024/01/23 00:14:47;;;;;;;11.13;1.57;;;;;;;;;;4957864;28;20217;-81
2024/01/23 00:17:13;;;;;;;8.17;1.67;;;;;;;;;;4957858;28;20419;-81
2024/01/23 00:19:39;;;;;;;20.53;2.80;;;;;;;;;;4956570;28;20422;-83
2024/01/23 00:22:04;;;;;;;16.10;1.70;;;;;;;;;;4957565;28;20571;-84
2024/01/23 00:24:30;;;;;;;8.30;1.63;;;;;;;;;;4956441;28;20503;-81
2024/01/23 00:26:56;;;;;;;16.03;3.20;;;;;;;;;;4957742;28;20416;-85
2024/01/23 00:29:22;;;;;;;13.40;1.63;;;;;;;;;;4957711;28;20407;-85
2024/01/23 00:31:48;;;;;;;11.73;3.30;;;;;;;;;;4957667;28;20442;-81
2024/01/23 00:34:14;;;;;;;11.90;3.23;;;;;;;;;;4956166;28;20188;-82
2024/01/23 00:36:41;;;;;;;12.60;1.77;;;;;;;;;;4955035;28;20787;-82
2024/01/23 00:39:07;;;;;;;9.73;1.80;;;;;;;;;;4956548;28;20832;-81
2024/01/23 00:41:34;;;;;;;11.23;2.00;;;;;;;;;;4969157;28;20573;-83
2024/01/23 00:44:00;;;;;;;8.27;1.50;;;;;;;;;;4957259;28;20510;-84
2024/01/23 00:46:26;;;;;;;14.17;2.67;;;;;;;;;;4957971;28;20422;-81
2024/01/23 00:48:52;;;;;;;11.33;2.00;;;;;;;;;;4956463;28;20465;-82
2024/01/23 00:51:18;;;;;;;13.20;2.10;;;;;;;;;;4957773;28;20916;-83
2024/01/23 00:53:44;;;;;;;12.57;3.03;;;;;;;;;;4957583;28;20413;-83
2024/01/23 00:56:10;;;;;;;10.10;1.53;;;;;;;;;;4957201;28;20521;-82
2024/01/23 00:58:36;;;;;;;17.27;3.33;;;;;;;;;;4957621;28;20423;-83
2024/01/23 01:01:02;;;;;;;9.57;2.27;;;;;;;;;;4956871;28;20489;-80
2024/01/23 01:03:28;;;;;;;12.47;2.53;;;;;;;;;;4956844;28;20423;-82
2024/01/23 01:05:54;;;;;;;9.93;1.57;;;;;;;;;;4956507;28;20439;-83
2024/01/23 01:08:20;;;;;;;11.03;1.37;;;;;;;;;;4957154;28;20427;-83
2024/01/23 01:10:47;;;;;;;14.17;1.67;;;;;;;;;;4956511;28;20416;-83
2024/01/23 01:13:13;;;;;;;21.00;2.20;;;;;;;;;;4956817;28;20423;-81
2024/01/23 01:15:39;;;;;;;9.93;1.43;;;;;;;;;;4956332;28;20405;-80
2024/01/23 01:18:07;;;;;;;10.93;1.87;;;;;;;;;;4916529;28;20435;-79
2024/01/23 01:20:33;;;;;;;9.00;1.10;;;;;;;;;;4956305;28;20888;-80
2024/01/23 01:22:59;;;;;;;7.97;1.07;;;;;;;;;;4956353;28;20420;-80
2024/01/23 01:25:25;;;;;;;4.10;0.40;;;;;;;;;;4955936;28;20792;-82
2024/01/23 01:27:51;;;;;;;3.50;0.70;;;;;;;;;;4956322;28;20420;-81
2024/01/23 01:30:17;;;;;;;5.70;1.27;;;;;;;;;;4956524;28;20488;-81
2024/01/23 01:32:43;;;;;;;6.77;1.13;;;;;;;;;;4955479;28;20453;-81
2024/01/23 01:35:09;;;;;;;6.47;0.70;;;;;;;;;;4956572;28;20907;-82
2024/01/23 01:37:38;;;;;;;5.17;0.83;;;;;;;;;;4956506;28;20421;-82
2024/01/23 01:40:04;;;;;;;4.43;0.43;;;;;;;;;;4956075;28;20899;-81
2024/01/23 01:42:30;;;;;;;3.80;0.63;;;;;;;;;;4956480;28;20809;-80
2024/01/23 01:44:56;;;;;;;4.40;1.50;;;;;;;;;;4956358;28;20416;-81
2024/01/23 01:47:22;;;;;;;4.87;0.77;;;;;;;;;;4956401;28;20428;-81
2024/01/23 01:49:48;;;;;;;12.60;1.03;;;;;;;;;;4956404;28;20420;-82
2024/01/23 01:52:15;;;;;;;5.07;1.00;;;;;;;;;;4956261;28;20452;-80
2024/01/23 01:54:42;;;;;;;6.50;0.87;;;;;;;;;;4955938;28;20417;-82
2024/01/23 01:57:08;;;;;;;13.50;1.33;;;;;;;;;;4955903;28;20425;-81
2024/01/23 01:59:34;;;;;;;8.80;2.20;;;;;;;;;;4956161;28;20905;-81
2024/01/23 02:02:01;;;;;;;10.13;1.47;;;;;;;;;;4955860;28;20890;-80
2024/01/23 02:04:26;;;;;;;11.13;1.77;;;;;;;;;;4955942;28;20558;-83
2024/01/23 02:06:53;;;;;;;6.03;1.10;;;;;;;;;;4956238;28;20548;-81
2024/01/23 02:09:19;;;;;;;8.30;1.13;;;;;;;;;;4955747;28;20429;-83
2024/01/23 02:11:57;;;;;;;8.37;1.30;;;;;;;;;;4956035;28;20789;-84
2024/01/23 02:14:23;;;;;;;13.57;2.30;;;;;;;;;;4955944;28;20418;-81
2024/01/23 02:16:49;;;;;;;8.50;2.00;;;;;;;;;;4955448;28;20439;-82
2024/01/23 02:19:27;;;;;;;12.87;1.60;;;;;;;;;;4955613;28;20417;-81
2024/01/23 02:21:54;;;;;;;10.03;1.03;;;;;;;;;;4915142;28;20480;-86
2024/01/23 02:24:23;;;;;;;11.30;0.87;;;;;;;;;;4955476;28;20751;-80
2024/01/23 02:26:49;;;;;;;7.87;1.47;;;;;;;;;;4955673;28;20421;-79
2024/01/23 02:29:16;;;;;;;7.10;1.00;;;;;;;;;;4955696;28;20438;-84
2024/01/23 02:31:42;;;;;;;10.43;2.60;;;;;;;;;;4955613;28;20413;-84
2024/01/23 02:34:08;;;;;;;6.90;0.97;;;;;;;;;;4955823;28;20485;-83
2024/01/23 02:36:39;;;;;;;9.87;1.33;;;;;;;;;;4955527;28;20896;-85
2024/01/23 02:39:05;;;;;;;8.07;0.77;;;;;;;;;;4955019;28;20402;-83
2024/01/23 02:41:31;;;;;;;9.27;2.10;;;;;;;;;;4955460;28;20491;-84
2024/01/23 02:43:56;;;;;;;7.70;1.00;;;;;;;;;;4955488;28;20410;-82
2024/01/23 02:46:22;;;;;;;11.80;2.67;;;;;;;;;;4955361;28;20426;-79
2024/01/23 02:48:48;;;;;;;8.90;1.37;;;;;;;;;;4955488;28;20472;-83
2024/01/23 02:51:20;;;;;;;6.77;1.27;;;;;;;;;;4955394;28;20797;-86
2024/01/23 02:53:46;;;;;;;6.93;0.40;;;;;;;;;;4955095;28;20976;-83
2024/01/23 02:56:13;;;;;;;6.40;1.10;;;;;;;;;;4955324;28;20493;-83
2024/01/23 02:58:42;;;;;;;9.20;1.27;;;;;;;;;;4955255;28;20418;-86
2024/01/23 03:01:08;;;;;;;8.93;1.30;;;;;;;;;;4954932;28;20473;-83
2024/01/23 03:03:34;;;;;;;8.43;1.20;;;;;;;;;;4953977;28;20430;-81
2024/01/23 03:06:00;;;;;;;9.40;1.57;;;;;;;;;;4955314;28;20543;-86
2024/01/23 03:08:32;;;;;;;9.07;1.30;;;;;;;;;;4954033;28;20413;-83
2024/01/23 03:10:58;;;;;;;7.53;1.10;;;;;;;;;;4954081;28;20910;-82
2024/01/23 03:13:24;;;;;;;10.40;1.30;;;;;;;;;;4955544;28;20416;-84
2024/01/23 03:15:52;;;;;;;8.43;1.70;;;;;;;;;;4954073;28;20488;-84
2024/01/23 03:18:18;;;;;;;13.13;3.00;;;;;;;;;;4954095;28;20425;-82
2024/01/23 03:20:43;;;;;;;13.10;1.03;;;;;;;;;;4955069;28;20454;-83
2024/01/23 03:23:10;;;;;;;15.77;3.90;;;;;;;;;;4955460;28;20417;-83
2024/01/23 03:25:36;;;;;;;8.00;1.87;;;;;;;;;;4954932;28;20485;-84
2024/01/23 03:28:02;;;;;;;7.67;2.20;;;;;;;;;;4955108;28;20429;-85
2024/01/23 03:30:29;;;;;;;11.17;1.03;;;;;;;;;;4955022;28;20415;-81
2024/01/23 03:32:55;;;;;;;8.03;1.57;;;;;;;;;;4955167;28;20617;-85
2024/01/23 03:35:21;;;;;;;8.13;3.17;;;;;;;;;;4958884;28;20463;-83
2024/01/23 03:37:47;;;;;;;9.23;1.50;;;;;;;;;;4958992;28;20465;-84
2024/01/23 03:40:16;;;;;;;10.13;1.30;;;;;;;;;;4958664;28;20421;-80
2024/01/23 03:42:45;;;;;;;9.33;1.70;;;;;;;;;;4958815;28;20487;-81
2024/01/23 03:45:11;;;;;;;16.60;1.93;;;;;;;;;;4957401;28;20427;-81
2024/01/23 03:47:37;;;;;;;9.43;1.27;;;;;;;;;;4958748;28;20441;-80
2024/01/23 03:50:03;;;;;;;13.13;2.67;;;;;;;;;;4958632;28;20418;-82
2024/01/23 03:52:30;;;;;;;13.50;2.03;;;;;;;;;;4958712;28;20525;-85
2024/01/23 03:54:55;;;;;;;11.23;2.57;;;;;;;;;;4957041;28;20837;-85
2024/01/23 03:57:22;;;;;;;14.67;1.70;;;;;;;;;;4958608;28;20434;-82
2024/01/23 03:59:48;;;;;;;10.73;1.90;;;;;;;;;;4957277;28;20414;-82
2024/01/23 04:02:14;;;;;;;9.97;2.10;;;;;;;;;;4958344;28;20475;-85
2024/01/23 04:04:40;;;;;;;11.63;2.80;;;;;;;;;;4958629;28;20398;-86
2024/01/23 04:07:09;;;;;;;10.10;1.73;;;;;;;;;;4958425;28;20793;-82
2024/01/23 04:09:35;;;;;;;11.93;2.10;;;;;;;;;;4957471;28;20422;-83
2024/01/23 04:12:01;;;;;;;17.50;1.60;;;;;;;;;;4958323;28;20464;-81
2024/01/23 04:14:27;;;;;;;11.27;1.83;;;;;;;;;;4958522;28;20408;-80
2024/01/23 04:16:52;;;;;;;12.90;2.30;;;;;;;;;;4958241;28;20416;-84
2024/01/23 04:19:18;;;;;;;15.77;2.97;;;;;;;;;;4928235;28;20477;-80
2024/01/23 04:21:46;;;;;;;11.00;1.73;;;;;;;;;;4948693;28;20888;-87
2024/01/23 04:24:12;;;;;;;15.13;2.43;;;;;;;;;;4957830;28;20497;-84
2024/01/23 04:26:43;;;;;;;10.50;1.40;;;;;;;;;;4956797;29;20489;-82
2024/01/23 04:29:10;;;;;;;7.70;1.40;;;;;;;;;;4957902;28;20428;-86
2024/01/23 04:31:36;;;;;;;9.20;1.70;;;;;;;;;;4958002;28;20926;-81
2024/01/23 04:34:02;;;;;;;12.80;2.30;;;;;;;;;;4957984;28;20478;-87
2024/01/23 04:36:31;;;;;;;15.40;1.80;;;;;;;;;;4957912;28;20557;-84
2024/01/23 04:38:57;;;;;;;9.60;1.90;;;;;;;;;;4957696;28;20427;-83
2024/01/23 04:41:24;;;;;;;13.53;2.60;;;;;;;;;;4958207;28;20488;-86
2024/01/23 04:43:50;;;;;;;17.63;4.20;;;;;;;;;;4964639;28;20442;-89
2024/01/23 04:46:25;;;;;;;16.00;3.10;;;;;;;;;;4958176;28;20416;-80
2024/01/23 04:48:51;;;;;;;12.40;2.30;;;;;;;;;;4959316;28;20493;-79
2024/01/23 04:51:17;;;;;;;9.17;1.77;;;;;;;;;;4957916;28;20454;-89
2024/01/23 04:53:43;;;;;;;14.13;2.03;;;;;;;;;;4957640;28;20422;-81
2024/01/23 04:56:08;;;;;;;11.33;1.33;;;;;;;;;;4957571;28;20421;-84
2024/01/23 04:58:34;;;;;;;11.83;2.37;;;;;;;;;;4957737;28;20450;-80
2024/01/23 05:01:00;;;;;;;8.47;0.87;;;;;;;;;;4956978;28;20537;-82
2024/01/23 05:03:26;;;;;;;11.03;2.93;;;;;;;;;;4957272;28;20489;-81
2024/01/23 05:05:52;;;;;;;14.90;3.87;;;;;;;;;;4957117;28;20421;-84
2024/01/23 05:08:18;;;;;;;18.37;3.20;;;;;;;;;;4956991;28;20417;-85
2024/01/23 05:10:44;;;;;;;7.57;2.00;;;;;;;;;;4957275;28;20424;-84
2024/01/23 05:13:10;;;;;;;17.10;2.60;;;;;;;;;;4957027;28;20421;-86
2024/01/23 05:15:37;;;;;;;25.23;3.57;;;;;;;;;;4955890;28;20435;-84
2024/01/23 05:18:06;;;;;;;17.10;2.50;;;;;;;;;;4957055;28;20906;-81
2024/01/23 05:20:32;;;;;;;12.27;1.77;;;;;;;;;;4916564;28;20509;-87
2024/01/23 05:22:58;;;;;;;11.00;1.47;;;;;;;;;;4956217;28;20498;-85
2024/01/23 05:25:27;;;;;;;16.60;3.40;;;;;;;;;;4955978;28;20414;-84
2024/01/23 05:27:56;;;;;;;10.97;2.17;;;;;;;;;;4956220;28;20425;-83
2024/01/23 05:30:22;;;;;;;17.50;2.40;;;;;;;;;;4956146;28;20423;-86
2024/01/23 05:32:48;;;;;;;14.50;2.70;;;;;;;;;;4956276;28;20413;-85
2024/01/23 05:35:14;;;;;;;15.63;2.40;;;;;;;;;;4954847;29;20478;-86
2024/01/23 05:37:40;;;;;;;20.60;4.40;;;;;;;;;;4956767;28;20413;-82
2024/01/23 05:40:10;;;;;;;12.00;2.80;;;;;;;;;;4956101;28;20416;-88
2024/01/23 05:42:36;;;;;;;20.00;3.17;;;;;;;;;;4955536;28;20414;-89
2024/01/23 05:45:03;;;;;;;16.27;2.90;;;;;;;;;;4956448;28;20460;-88
2024/01/23 05:47:29;;;;;;;12.33;2.37;;;;;;;;;;4957086;28;20408;-87
2024/01/23 05:49:55;;;;;;;24.93;3.43;;;;;;;;;;4956872;28;20422;-81
2024/01/23 05:52:21;;;;;;;16.63;2.63;;;;;;;;;;4955689;28;20434;-80
2024/01/23 05:54:47;;;;;;;13.80;2.67;;;;;;;;;;4956436;28;20429;-82
2024/01/23 05:57:13;;;;;;;13.73;3.30;;;;;;;;;;4955472;28;20430;-91
2024/01/23 05:59:40;;;;;;;17.20;4.00;;;;;;;;;;4956968;28;20415;-89
2024/01/23 06:02:06;;;;;;;12.13;1.73;;;;;;;;;;4956783;28;20490;-89
2024/01/23 06:04:32;;;;;;;12.73;2.80;;;;;;;;;;4956806;28;20917;-85
2024/01/23 06:06:58;;;;;;;22.80;2.67;;;;;;;;;;4956537;28;20423;-82
2024/01/23 06:09:24;;;;;;;10.57;3.23;;;;;;;;;;4956442;28;20495;-81
2024/01/23 06:11:52;;;;;;;14.10;2.87;;;;;;;;;;4956607;28;20451;-82
2024/01/23 06:14:18;;;;;;;14.10;3.60;;;;;;;;;;4955369;28;20473;-89
2024/01/23 06:16:44;;;;;;;13.67;2.70;;;;;;;;;;4955197;28;20450;-86
2024/01/23 06:19:12;;;;;;;18.20;3.77;;;;;;;;;;4956549;28;20442;-83
2024/01/23 06:21:38;;;;;;;16.00;3.00;;;;;;;;;;4956389;28;20568;-83
2024/01/23 06:24:05;;;;;;;11.30;1.80;;;;;;;;;;4955380;28;20494;-85
2024/01/23 06:26:32;;;;;;;14.50;1.90;;;;;;;;;;4938597;28;20998;-90
2024/01/23 06:28:58;;;;;;;23.70;3.00;;;;;;;;;;4939048;28;20445;-88
2024/01/23 06:31:26;;;;;;;13.10;2.47;;;;;;;;;;4956204;28;20915;-83
2024/01/23 06:33:55;;;;;;;15.20;2.93;;;;;;;;;;4955712;28;20509;-80
2024/01/23 06:36:21;;;;;;;12.57;2.70;;;;;;;;;;4956080;28;20429;-80
2024/01/23 06:38:47;;;;;;;15.00;2.83;;;;;;;;;;4955411;28;20428;-87
2024/01/23 06:41:13;;;;;;;21.73;4.23;;;;;;;;;;4955438;28;20476;-88
2024/01/23 06:43:39;;;;;;;13.47;2.77;;;;;;;;;;4955789;28;20911;-88
2024/01/23 06:46:05;;;;;;;17.17;4.13;;;;;;;;;;4956148;28;20433;-90
2024/01/23 06:48:32;;;;;;;16.10;2.53;;;;;;;;;;4956057;28;20430;-90
2024/01/23 06:50:58;;;;;;;23.83;3.47;;;;;;;;;;4956306;28;20507;-91
2024/01/23 06:53:24;;;;;;;16.33;3.33;;;;;;;;;;4955901;28;20410;-91
2024/01/23 06:55:50;;;;;;;18.40;3.77;;;;;;;;;;4955810;28;20749;-88
2024/01/23 06:58:16;;;;;;;23.63;3.90;;;;;;;;;;4955949;28;20810;-86
2024/01/23 07:00:42;;;;;;;18.63;3.77;;;;;;;;;;4955661;28;20473;-90
2024/01/23 07:03:08;;;;;;;13.40;3.87;;;;;;;;;;4956083;28;20466;-87
2024/01/23 07:05:35;;;;;;;20.90;2.83;;;;;;;;;;4954587;29;20434;-86
2024/01/23 07:08:01;;;;;;;22.70;3.77;;;;;;;;;;4954580;28;20445;-87
2024/01/23 07:10:27;;;;;;;16.90;2.97;;;;;;;;;;4955459;28;20415;-88
2024/01/23 07:12:53;;;;;;;17.50;3.53;;;;;;;;;;4954178;28;20419;-86
2024/01/23 07:15:19;;;;;;;21.20;4.07;;;;;;;;;;4955836;28;20489;-86
2024/01/23 07:17:46;;;;;;;13.87;2.70;;;;;;;;;;4955433;28;21007;-88
2024/01/23 07:20:12;;;;;;;23.03;3.77;;;;;;;;;;4955356;28;20420;-88
2024/01/23 07:22:38;;;;;;;18.03;2.50;;;;;;;;;;4955424;28;20441;-85
2024/01/23 07:25:04;;;;;;;11.13;3.40;;;;;;;;;;4955334;28;20414;-86
2024/01/23 07:27:31;;;;;;;16.90;3.20;;;;;;;;;;4955344;28;20904;-82
2024/01/23 07:29:57;;;;;;;15.10;2.57;;;;;;;;;;4954155;28;20424;-87
2024/01/23 07:32:23;;;;;;;28.50;4.27;;;;;;;;;;4955533;28;20760;-87
2024/01/23 07:34:50;;;;;;;16.50;3.20;;;;;;;;;;4931380;28;20434;-87
2024/01/23 07:37:16;;;;;;;25.00;4.70;;;;;;;;;;4954377;28;20433;-81
2024/01/23 07:39:42;;;;;;;17.20;4.40;;;;;;;;;;4954990;28;20411;-85
2024/01/23 07:42:07;;;;;;;20.53;4.80;;;;;;;;;;4955217;28;21049;-89
2024/01/23 07:44:38;;;;;;;19.20;4.00;;;;;;;;;;4955062;28;20421;-91
2024/01/23 07:47:04;;;;;;;22.97;3.93;;;;;;;;;;4954842;28;20768;-87
2024/01/23 07:49:30;;;;;;;22.73;2.90;;;;;;;;;;4955510;28;20424;-90
2024/01/23 07:51:56;;;;;;;14.40;3.70;;;;;;;;;;4955293;28;20915;-90
2024/01/23 07:54:21;;;;;;;17.30;4.30;;;;;;;;;;4955372;28;20423;-84
2024/01/23 07:56:47;;;;;;;28.67;4.43;;;;;;;;;;4969716;28;20439;-87
2024/01/23 07:59:13;;;;;;;23.67;3.57;;;;;;;;;;4971194;28;20416;-89
2024/01/23 08:01:39;;;;;;;19.37;3.17;;;;;;;;;;4970826;28;20475;-92
2024/01/23 08:04:05;;;;;;;21.23;4.73;;;;;;;;;;4956476;28;20404;-93
2024/01/23 08:06:31;;;;;;;17.43;3.70;;;;;;;;;;4956298;28;20435;-91
2024/01/23 08:08:57;;;;;;;18.73;4.10;;;;;;;;;;4955699;28;20410;-92
2024/01/23 08:11:23;;;;;;;17.77;4.70;;;;;;;;;;4955321;28;20418;-92
2024/01/23 08:13:49;;;;;;;15.53;3.67;;;;;;;;;;4955593;28;20419;-90
2024/01/23 08:16:16;;;;;;;14.77;2.80;;;;;;;;;;4955508;28;20427;-91
2024/01/23 08:18:41;;;;;;;20.10;3.20;;;;;;;;;;4955859;28;20413;-91
2024/01/23 08:21:09;;;;;;;18.27;2.97;;;;;;;;;;4957216;28;20830;-88
2024/01/23 08:23:35;;;;;;;19.10;2.60;;;;;;;;;;4958124;28;20410;-89
2024/01/23 08:26:03;;;;;;;24.33;4.20;;;;;;;;;;4958449;28;20431;-89
2024/01/23 08:28:29;;;;;;;19.93;4.87;;;;;;;;;;4958423;28;20419;-88
2024/01/23 08:30:55;;;;;;;19.60;2.67;;;;;;;;;;4958095;28;20425;-82
2024/01/23 08:33:22;;;;;;;18.27;4.20;;;;;;;;;;4958259;28;20416;-84
2024/01/23 08:35:48;;;;;;;21.43;3.40;;;;;;;;;;4958228;28;20411;-84
2024/01/23 08:38:14;;;;;;;26.40;4.13;;;;;;;;;;4957932;28;20484;-90
2024/01/23 08:40:41;;;;;;;22.17;4.03;;;;;;;;;;4918680;28;20471;-87
2024/01/23 08:43:08;;;;;;;29.53;5.17;;;;;;;;;;4956973;29;20422;-85
2024/01/23 08:45:33;;;;;;;17.37;2.60;;;;;;;;;;4957926;28;20829;-84
2024/01/23 08:48:02;;;;;;;21.87;3.83;;;;;;;;;;4957944;28;20519;-86
2024/01/23 08:50:28;;;;;;;19.67;4.63;;;;;;;;;;4958107;28;20415;-84
2024/01/23 08:52:54;;;;;;;22.97;4.47;;;;;;;;;;4958100;28;20423;-87
2024/01/23 08:55:20;;;;;;;19.53;3.83;;;;;;;;;;4956810;28;20431;-87
2024/01/23 08:57:46;;;;;;;15.60;2.60;;;;;;;;;;4957886;28;20421;-86
2024/01/23 09:00:12;;;;;;;21.87;3.20;;;;;;;;;;4957791;28;20558;-84
2024/01/23 09:02:38;;;;;;;18.53;5.57;;;;;;;;;;4957501;28;20471;-82
2024/01/23 09:05:05;;;;;;;19.93;3.40;;;;;;;;;;4956791;28;20502;-84
2024/01/23 09:07:31;;;;;;;21.90;4.43;;;;;;;;;;4957135;28;20917;-82
2024/01/23 09:09:57;;;;;;;23.20;4.73;;;;;;;;;;4958271;28;20420;-83
2024/01/23 09:12:25;;;;;;;21.17;3.80;;;;;;;;;;4957483;28;20425;-87
2024/01/23 09:14:51;;;;;;;19.73;3.33;;;;;;;;;;4957744;28;20774;-79
2024/01/23 09:17:17;;;;;;;19.77;5.00;;;;;;;;;;4957400;28;20419;-82
2024/01/23 09:19:43;;;;;;;24.03;4.23;;;;;;;;;;4957277;28;20420;-89
2024/01/23 09:22:10;;;;;;;23.53;3.90;;;;;;;;;;4957264;28;20581;-84
2024/01/23 09:24:36;;;;;;;17.20;3.83;;;;;;;;;;4956798;28;20474;-85
2024/01/23 09:27:03;;;;;;;28.30;4.37;;;;;;;;;;4957551;28;20417;-81
2024/01/23 09:29:29;;;;;;;19.37;3.30;;;;;;;;;;4957087;28;20469;-81
2024/01/23 09:31:56;;;;;;;22.03;3.60;;;;;;;;;;4956168;28;20428;-82
2024/01/23 09:34:22;;;;;;;17.67;4.33;;;;;;;;;;4965426;28;20502;-85
2024/01/23 09:36:48;;;;;;;22.33;4.60;;;;;;;;;;4960081;29;20501;-86
2024/01/23 09:39:14;;;;;;;24.77;5.87;;;;;;;;;;4958498;28;20441;-84
2024/01/23 09:41:47;;;;;;;30.53;4.97;;;;;;;;;;4916150;28;20480;-87
2024/01/23 09:44:13;;;;;;;32.80;4.73;;;;;;;;;;4956912;28;20409;-87
2024/01/23 09:46:39;;;;;;;31.10;4.77;;;;;;;;;;4956828;28;20421;-87
2024/01/23 09:49:05;;;;;;;21.37;4.40;;;;;;;;;;4956854;28;20784;-84
2024/01/23 09:51:32;;;;;;;22.83;4.87;;;;;;;;;;4956677;28;20429;-85
2024/01/23 09:53:58;;;;;;;21.13;4.53;;;;;;;;;;4955730;28;20420;-88
2024/01/23 09:56:25;;;;;;;22.10;4.00;;;;;;;;;;4955144;28;20488;-85
2024/01/23 09:58:51;;;;;;;21.80;4.97;;;;;;;;;;4956381;28;20933;-87
2024/01/23 10:01:18;;;;;;;26.10;4.40;;;;;;;;;;4956313;28;20485;-85
2024/01/23 10:03:48;;;;;;;18.37;4.23;;;;;;;;;;4956416;28;20414;-82
2024/01/23 10:06:14;;;;;;;22.67;4.10;;;;;;;;;;4956468;28;20513;-87
2024/01/23 10:08:40;;;;;;;27.77;5.17;;;;;;;;;;4956297;28;20404;-86
2024/01/23 10:11:06;;;;;;;19.77;2.93;;;;;;;;;;4956710;28;20409;-88
2024/01/23 10:13:32;;;;;;;18.87;3.70;;;;;;;;;;4956297;28;20935;-88
2024/01/23 10:15:59;;;;;;;14.90;3.23;;;;;;;;;;4954992;28;20898;-87
2024/01/23 10:18:25;;;;;;;19.30;5.10;;;;;;;;;;4956240;28;21041;-87
2024/01/23 10:20:51;;;;;;;32.77;5.73;;;;;;;;;;4956083;28;20954;-88
2024/01/23 10:23:17;;;;;;;31.20;8.00;;;;;;;;;;4955975;28;20424;-88
2024/01/23 10:25:44;;;;;;;23.93;3.00;;;;;;;;;;4954762;28;20950;-88
2024/01/23 10:28:10;;;;;;;19.87;3.90;;;;;;;;;;4956027;28;20978;-86
2024/01/23 10:30:37;;;;;;;19.80;3.90;;;;;;;;;;4956046;28;20785;-84
2024/01/23 10:33:04;;;;;;;25.73;5.43;;;;;;;;;;4955955;28;20412;-86
2024/01/23 10:35:33;;;;;;;22.30;5.30;;;;;;;;;;4955806;28;20988;-86
2024/01/23 10:37:59;;;;;;;16.00;3.40;;;;;;;;;;4955378;28;20739;-88
2024/01/23 10:40:26;;;;;;;28.93;4.87;;;;;;;;;;4951245;28;20415;-78
2024/01/23 10:42:52;;;;;;;17.27;4.60;;;;;;;;;;4934786;28;20450;-79
2024/01/23 10:45:18;;;;;;;17.27;3.47;;;;;;;;;;4955265;28;20435;-81
2024/01/23 10:47:45;;;;;;;25.93;4.93;;;;;;;;;;4955492;28;20430;-80
2024/01/23 10:50:11;;;;;;;20.80;5.37;;;;;;;;;;4955422;28;20960;-83
2024/01/23 10:52:39;;;;;;;17.30;4.97;;;;;;;;;;4954993;28;20415;-84
2024/01/23 10:55:06;;;;;;;19.57;4.70;;;;;;;;;;4955334;28;20420;-83
2024/01/23 10:57:35;;;;;;;18.60;4.80;;;;;;;;;;4955302;28;20472;-79
2024/01/23 11:00:04;;;;;;;25.07;5.67;;;;;;;;;;4955056;28;20594;-81
2024/01/23 11:02:32;;;;;;;17.90;4.10;;;;;;;;;;4969680;28;20490;-84
2024/01/23 11:04:59;;;;;;;19.00;3.80;;;;;;;;;;4955327;28;20412;-82
2024/01/23 11:07:29;;;;;;;23.30;4.77;;;;;;;;;;4954883;28;20429;-82
2024/01/23 11:10:00;;;;;;;33.20;8.20;;;;;;;;;;4955429;28;20814;-83
2024/01/23 11:12:29;;;;;;;20.40;4.70;;;;;;;;;;4955125;28;20414;-79
2024/01/23 11:15:00;;;;;;;20.03;3.97;;;;;;;;;;4955012;28;20479;-79
2024/01/23 11:17:31;;;;;;;24.53;4.50;;;;;;;;;;4954944;28;20427;-80
2024/01/23 11:20:08;;;;;;;26.57;5.30;;;;;;;;;;4955045;28;20413;-83
2024/01/23 11:22:34;;;;;;;30.07;5.97;;;;;;;;;;4954556;28;20550;-80
2024/01/23 11:25:00;;;;;;;13.07;3.83;;;;;;;;;;4969874;28;20429;-79
2024/01/23 11:27:26;;;;;;;23.07;5.80;;;;;;;;;;4954957;28;20480;-80
2024/01/23 11:29:53;;;;;;;21.30;5.13;;;;;;;;;;4954889;28;20423;-81
2024/01/23 11:32:25;;;;;;;27.27;3.87;;;;;;;;;;4954872;28;20422;-79
2024/01/23 11:35:00;;;;;;;21.53;4.33;;;;;;;;;;4954637;28;20465;-81
2024/01/23 11:37:36;;;;;;;24.00;4.30;;;;;;;;;;4953905;28;20454;-79
2024/01/23 11:40:06;;;;;;;18.87;4.50;;;;;;;;;;4954685;28;20409;-80
2024/01/23 11:42:37;;;;;;;19.03;5.03;;;;;;;;;;4912134;29;20475;-81
2024/01/23 11:45:22;;;;;;;26.83;4.53;;;;;;;;;;4953101;28;20416;-81
2024/01/23 11:47:55;;;;;;;26.30;4.23;;;;;;;;;;4955850;28;20423;-81
2024/01/23 11:50:21;;;;;;;17.13;3.53;;;;;;;;;;4956079;28;20416;-81
2024/01/23 11:52:49;;;;;;;15.80;3.17;;;;;;;;;;4955101;28;20426;-80
2024/01/23 11:55:16;;;;;;;19.70;5.57;;;;;;;;;;4956957;28;20414;-79
2024/01/23 11:57:42;;;;;;;18.63;3.90;;;;;;;;;;4958909;28;20948;-80
2024/01/23 12:00:08;;;;;;;15.00;2.87;;;;;;;;;;4958827;28;20921;-81
2024/01/23 12:02:35;;;;;;;20.23;4.37;;;;;;;;;;4959515;28;20483;-84
2024/01/23 12:05:01;;;;;;;18.80;4.13;;;;;;;;;;4962296;28;20416;-80
2024/01/23 12:07:27;;;;;;;21.27;4.73;;;;;;;;;;4958006;28;20451;-83
2024/01/23 12:09:54;;;;;;;26.63;4.20;;;;;;;;;;4958314;28;20986;-79
2024/01/23 12:12:20;;;;;;;19.00;4.90;;;;;;;;;;4958210;28;20427;-79
2024/01/23 12:14:46;;;;;;;23.40;5.27;;;;;;;;;;4958217;28;20418;-80
2024/01/23 12:17:12;;;;;;;21.20;5.03;;;;;;;;;;4958157;28;20994;-81
2024/01/23 12:19:47;;;;;;;12.13;2.63;;;;;;;;;;4958229;28;20414;-85
2024/01/23 12:22:14;;;;;;;22.37;5.10;;;;;;;;;;4972617;28;20501;-79
2024/01/23 12:24:40;;;;;;;16.00;3.50;;;;;;;;;;4957425;28;20482;-80
2024/01/23 12:27:08;;;;;;;17.67;5.27;;;;;;;;;;4957545;28;20799;-81
2024/01/23 12:29:34;;;;;;;19.03;3.10;;;;;;;;;;4957259;28;20905;-78
2024/01/23 12:31:59;;;;;;;18.80;3.90;;;;;;;;;;4957234;28;20466;-78
2024/01/23 12:34:25;;;;;;;22.80;4.60;;;;;;;;;;4957568;28;20947;-78
2024/01/23 12:36:51;;;;;;;21.90;4.60;;;;;;;;;;4956885;28;20423;-79
2024/01/23 12:39:17;;;;;;;12.70;4.13;;;;;;;;;;4957290;28;20746;-78
2024/01/23 12:41:44;;;;;;;18.03;4.73;;;;;;;;;;4916565;28;20530;-79
2024/01/23 12:44:10;;;;;;;19.70;4.67;;;;;;;;;;4957146;28;20419;-79
2024/01/23 12:46:36;;;;;;;22.20;3.87;;;;;;;;;;4957062;28;20530;-79
2024/01/23 12:49:08;;;;;;;19.67;3.47;;;;;;;;;;4957255;28;20786;-79
2024/01/23 12:51:37;;;;;;;15.27;3.40;;;;;;;;;;4955715;28;20857;-79
2024/01/23 12:54:04;;;;;;;20.97;4.07;;;;;;;;;;4956576;28;20419;-79
2024/01/23 12:56:30;;;;;;;19.03;5.13;;;;;;;;;;4956854;28;20430;-78
2024/01/23 12:58:56;;;;;;;21.60;3.40;;;;;;;;;;4956856;28;20426;-81
2024/01/23 13:01:22;;;;;;;18.77;4.10;;;;;;;;;;4971409;28;20491;-82
2024/01/23 13:03:50;;;;;;;17.83;3.33;;;;;;;;;;4956947;28;20563;-79
2024/01/23 13:06:16;;;;;;;23.77;4.27;;;;;;;;;;4954692;28;20488;-79
2024/01/23 13:08:42;;;;;;;24.93;4.70;;;;;;;;;;4956601;28;20471;-81
2024/01/23 13:11:08;;;;;;;28.77;4.20;;;;;;;;;;4957290;28;20474;-83
2024/01/23 13:13:34;;;;;;;21.23;3.50;;;;;;;;;;4957781;28;20788;-86
2024/01/23 13:16:08;;;;;;;15.63;2.70;;;;;;;;;;4957740;28;20978;-84
2024/01/23 13:18:41;;;;;;;17.60;3.90;;;;;;;;;;4956350;28;20443;-84
2024/01/23 13:21:07;;;;;;;20.73;3.30;;;;;;;;;;4956494;28;20474;-83
2024/01/23 13:24:06;;;;;;;20.80;2.97;;;;;;;;;;4966813;28;20418;-79
2024/01/23 13:26:50;;;;;;;16.73;3.13;;;;;;;;;;4952558;28;20536;-79
2024/01/23 13:29:18;;;;;;;19.43;3.80;;;;;;;;;;4955907;29;20499;-80
2024/01/23 13:31:45;;;;;;;23.83;4.33;;;;;;;;;;4956263;28;20529;-80
2024/01/23 13:34:14;;;;;;;21.40;4.00;;;;;;;;;;4952963;28;20426;-82
2024/01/23 13:36:40;;;;;;;16.27;3.83;;;;;;;;;;4955555;28;20414;-79
2024/01/23 13:39:13;;;;;;;17.00;3.00;;;;;;;;;;4955715;28;20404;-81
2024/01/23 13:41:44;;;;;;;24.30;4.43;;;;;;;;;;4955999;28;20472;-79
2024/01/23 13:44:11;;;;;;;20.93;3.87;;;;;;;;;;4913650;28;21169;-81
2024/01/23 13:46:37;;;;;;;18.70;4.83;;;;;;;;;;4937251;29;20412;-83
2024/01/23 13:49:03;;;;;;;18.80;3.00;;;;;;;;;;4937092;29;20452;-84
2024/01/23 13:51:29;;;;;;;16.77;2.80;;;;;;;;;;4936994;29;20774;-83
2024/01/23 13:53:58;;;;;;;22.03;3.60;;;;;;;;;;4936640;29;20402;-81
2024/01/23 13:56:24;;;;;;;16.33;3.90;;;;;;;;;;4937056;29;20473;-83
2024/01/23 13:58:53;;;;;;;11.47;2.50;;;;;;;;;;4937217;29;20410;-82
2024/01/23 14:01:19;;;;;;;22.70;3.33;;;;;;;;;;4951544;29;20963;-85
2024/01/23 14:03:45;;;;;;;20.70;4.23;;;;;;;;;;4937163;29;20510;-82
2024/01/23 14:06:11;;;;;;;17.87;3.70;;;;;;;;;;4936744;29;20418;-80
2024/01/23 14:08:40;;;;;;;17.40;3.77;;;;;;;;;;4936375;29;20869;-80
2024/01/23 14:11:07;;;;;;;18.93;5.00;;;;;;;;;;4936880;28;20419;-80
2024/01/23 14:13:33;;;;;;;15.53;3.40;;;;;;;;;;4951473;28;20414;-81
2024/01/23 14:15:59;;;;;;;15.90;3.53;;;;;;;;;;4936607;28;20906;-82
2024/01/23 14:18:25;;;;;;;19.53;5.27;;;;;;;;;;4936746;29;20418;-85
2024/01/23 14:20:51;;;;;;;12.20;2.53;;;;;;;;;;4936641;29;20491;-83
2024/01/23 14:23:17;;;;;;;12.70;3.10;;;;;;;;;;4936342;29;20913;-81
2024/01/23 14:25:43;;;;;;;20.20;3.37;;;;;;;;;;4936664;29;20437;-84
2024/01/23 14:28:10;;;;;;;16.87;2.90;;;;;;;;;;4949221;29;20456;-85